Time;durP1;ratioP1;P1;durP2;ratioP2;P2;SDS_P1;SDS_P2;PMS_P1;PMS_P2;Temp;Humidity;BMP_temperature;BMP_pressure;BME280_temperature;BME280_humidity;BME280_pressure;Samples;Min_cycle;Max_cycle;Signal;HPM_P1;HPM_P2
2021/01/21 00:00:39;;;;;;;3.03;1.80;;;7.30;99.90;;;;;;4981139;28;20898;-47
2021/01/21 00:03:06;;;;;;;2.63;2.17;;;7.20;99.90;;;;;;4981602;28;20586;-46
2021/01/21 00:05:33;;;;;;;3.30;2.80;;;7.20;99.90;;;;;;4967385;28;20588;-47
2021/01/21 00:07:59;;;;;;;4.60;2.60;;;7.20;99.90;;;;;;4974406;28;20459;-48
2021/01/21 00:10:26;;;;;;;4.60;2.57;;;7.20;99.90;;;;;;4975808;28;20754;-46
2021/01/21 00:12:53;;;;;;;5.03;2.30;;;7.20;99.90;;;;;;4977660;28;20447;-48
2021/01/21 00:15:20;;;;;;;6.10;2.30;;;7.20;99.90;;;;;;4983166;28;20563;-47
2021/01/21 00:17:47;;;;;;;5.00;2.23;;;7.20;99.90;;;;;;4982876;28;20525;-48
2021/01/21 00:20:15;;;;;;;3.13;2.30;;;7.20;99.90;;;;;;4976446;28;20459;-45
2021/01/21 07:51:13;;;;;;;8.50;4.20;;;8.80;99.90;;;;;;5344754;23;20950;-50
2021/01/21 07:53:40;;;;;;;4.37;3.10;;;8.80;99.90;;;;;;4943392;23;20503;-52
2021/01/21 07:56:07;;;;;;;4.70;2.50;;;8.80;99.90;;;;;;4936275;29;20507;-51
2021/01/21 07:58:37;;;;;;;4.47;2.57;;;8.90;99.90;;;;;;4955307;29;21012;-52
2021/01/21 08:01:08;;;;;;;5.37;2.30;;;8.90;99.90;;;;;;4955675;29;20460;-49
2021/01/21 08:03:37;;;;;;;2.47;2.10;;;9.00;99.90;;;;;;4955029;29;20448;-52
2021/01/21 08:06:16;;;;;;;3.07;2.03;;;9.00;99.90;;;;;;4955254;29;20463;-54
2021/01/21 08:08:43;;;;;;;3.50;1.93;;;9.10;99.90;;;;;;4955265;29;20463;-46
2021/01/21 08:11:11;;;;;;;7.07;2.37;;;9.20;99.90;;;;;;4955295;29;20490;-50
2021/01/21 08:13:39;;;;;;;4.17;2.53;;;9.30;99.90;;;;;;4955098;29;20448;-49
2021/01/21 08:16:06;;;;;;;7.43;2.87;;;9.40;99.90;;;;;;4955087;29;20452;-48
2021/01/21 08:18:35;;;;;;;5.10;3.13;;;9.40;99.90;;;;;;4955232;29;20456;-54
2021/01/21 08:21:16;;;;;;;4.20;2.50;;;9.50;99.90;;;;;;4955052;29;20474;-52
2021/01/21 08:23:51;;;;;;;2.50;1.50;;;9.60;99.90;;;;;;4957502;28;20506;-47
2021/01/21 08:26:21;;;;;;;3.97;2.17;;;9.70;99.90;;;;;;5536232;23;20546;-53
2021/01/21 08:28:47;;;;;;;3.20;2.30;;;9.70;99.90;;;;;;4968801;29;20455;-51
2021/01/21 08:31:14;;;;;;;2.23;1.83;;;9.90;99.90;;;;;;4969435;29;20462;-51
2021/01/21 08:33:45;;;;;;;4.10;2.40;;;10.00;99.90;;;;;;4968982;29;20448;-50
2021/01/21 08:36:15;;;;;;;3.83;2.50;;;10.00;99.90;;;;;;4967963;29;20448;-47
2021/01/21 08:38:45;;;;;;;5.13;3.00;;;10.10;99.90;;;;;;4968879;29;20447;-50
2021/01/21 08:41:14;;;;;;;3.90;2.67;;;10.20;99.90;;;;;;4969434;29;20465;-46
2021/01/21 08:43:42;;;;;;;5.70;3.27;;;10.20;99.90;;;;;;4968365;29;20503;-50
2021/01/21 08:46:14;;;;;;;3.10;2.10;;;10.20;99.90;;;;;;4968828;29;20463;-51
2021/01/21 08:48:40;;;;;;;3.83;2.20;;;10.20;99.90;;;;;;4968262;29;20479;-53
2021/01/21 08:51:26;;;;;;;4.43;2.30;;;10.20;99.90;;;;;;4967426;29;20463;-49
2021/01/21 08:53:52;;;;;;;4.53;2.10;;;10.20;99.90;;;;;;4963674;29;20478;-52
2021/01/21 08:56:20;;;;;;;2.97;2.33;;;10.20;99.90;;;;;;4966770;29;20456;-48
2021/01/21 08:58:46;;;;;;;4.70;2.77;;;10.30;99.90;;;;;;4965320;29;20468;-46
2021/01/21 09:01:13;;;;;;;5.23;2.70;;;10.20;99.90;;;;;;4961102;29;20447;-51
2021/01/21 09:03:45;;;;;;;4.70;3.30;;;10.30;99.90;;;;;;4957287;29;20833;-52
2021/01/21 09:06:13;;;;;;;5.83;2.37;;;10.30;99.90;;;;;;4960615;29;20622;-45
2021/01/21 09:08:47;;;;;;;3.03;1.93;;;10.40;99.90;;;;;;4960859;29;20510;-54
2021/01/21 09:11:33;;;;;;;3.20;2.40;;;10.40;99.90;;;;;;4960699;29;20455;-50
2021/01/21 09:14:00;;;;;;;4.20;2.80;;;10.40;99.90;;;;;;4956293;29;20559;-51
2021/01/21 09:16:43;;;;;;;4.20;2.27;;;10.50;99.90;;;;;;4960389;29;20525;-54
2021/01/21 09:19:10;;;;;;;4.53;2.47;;;10.60;99.90;;;;;;4961273;29;20444;-47
2021/01/21 09:21:37;;;;;;;2.77;2.00;;;10.70;99.90;;;;;;4961030;29;20960;-47
2021/01/21 09:24:09;;;;;;;4.00;2.10;;;10.70;99.90;;;;;;4961821;29;20488;-51
2021/01/21 09:26:37;;;;;;;5.03;2.07;;;10.80;99.90;;;;;;4961562;28;20482;-52
2021/01/21 09:29:04;;;;;;;9.10;2.40;;;10.90;99.90;;;;;;4961836;29;20463;-50
2021/01/21 09:31:31;;;;;;;7.23;2.10;;;10.90;99.90;;;;;;4961417;29;20521;-52
2021/01/21 09:33:58;;;;;;;4.47;2.03;;;11.00;99.90;;;;;;4962184;28;20861;-48
2021/01/21 09:36:30;;;;;;;2.77;2.37;;;11.00;99.90;;;;;;4961607;29;20460;-53
2021/01/21 09:38:57;;;;;;;4.40;2.43;;;11.10;99.90;;;;;;4960885;29;20448;-49
2021/01/21 09:41:24;;;;;;;4.17;2.50;;;11.20;99.90;;;;;;4960997;29;20463;-52
2021/01/21 09:43:52;;;;;;;4.50;2.40;;;11.30;99.80;;;;;;4960867;29;20457;-53
2021/01/21 09:46:18;;;;;;;3.10;2.10;;;11.50;99.50;;;;;;4960937;29;20775;-51
2021/01/21 09:48:44;;;;;;;3.23;2.33;;;12.10;98.50;;;;;;4960422;29;20919;-53
2021/01/21 09:51:11;;;;;;;3.73;2.20;;;12.90;96.10;;;;;;4960254;29;20479;-51
2021/01/21 09:53:38;;;;;;;5.70;2.23;;;13.40;93.40;;;;;;4958338;29;20517;-51
2021/01/21 09:56:04;;;;;;;11.53;2.57;;;13.60;91.20;;;;;;4959859;29;20550;-53
2021/01/21 09:58:31;;;;;;;3.10;2.40;;;13.80;89.40;;;;;;4958761;29;20452;-53
2021/01/21 10:00:58;;;;;;;4.27;2.77;;;14.00;87.20;;;;;;4958508;29;20447;-49
2021/01/21 10:03:25;;;;;;;4.70;2.43;;;14.10;85.60;;;;;;4961842;29;20466;-52
2021/01/21 10:05:52;;;;;;;7.43;2.60;;;14.50;83.70;;;;;;4960950;29;20494;-53
2021/01/21 10:08:19;;;;;;;3.33;2.00;;;15.10;89.70;;;;;;4951339;29;20801;-50
2021/01/21 10:10:46;;;;;;;2.90;2.23;;;15.30;85.50;;;;;;4947877;29;20546;-51
2021/01/21 10:13:13;;;;;;;4.10;2.33;;;15.20;80.90;;;;;;4957863;29;20452;-51
2021/01/21 10:15:40;;;;;;;8.10;3.00;;;15.10;82.80;;;;;;4957865;29;20504;-51
2021/01/21 10:18:08;;;;;;;5.20;2.30;;;15.00;88.20;;;;;;4956270;29;20854;-45
2021/01/21 10:20:35;;;;;;;4.37;2.13;;;14.50;82.80;;;;;;4956252;29;20589;-49
2021/01/21 10:23:01;;;;;;;3.50;2.10;;;14.20;87.10;;;;;;4956274;29;20444;-49
2021/01/21 10:25:28;;;;;;;6.80;2.20;;;14.20;86.30;;;;;;4956640;29;20484;-48
2021/01/21 10:27:55;;;;;;;9.97;3.20;;;14.90;82.60;;;;;;4957448;29;20470;-46
2021/01/21 10:30:22;;;;;;;2.67;2.13;;;15.70;79.20;;;;;;4956807;29;20455;-47
2021/01/21 10:32:49;;;;;;;10.27;2.90;;;16.60;72.60;;;;;;4955831;29;20447;-50
2021/01/21 10:35:16;;;;;;;5.07;2.40;;;17.10;83.60;;;;;;4955660;29;20970;-51
2021/01/21 10:37:43;;;;;;;4.20;2.40;;;17.40;67.10;;;;;;4956173;29;20451;-52
2021/01/21 10:40:11;;;;;;;3.17;2.10;;;17.30;64.00;;;;;;4956238;29;20462;-49
2021/01/21 10:42:38;;;;;;;6.10;2.57;;;17.60;64.40;;;;;;4955820;29;20448;-46
2021/01/21 10:45:06;;;;;;;6.23;2.37;;;18.00;63.10;;;;;;4955802;28;20507;-50
2021/01/21 10:47:34;;;;;;;3.23;2.23;;;18.40;62.70;;;;;;4947233;28;20484;-50
2021/01/21 10:50:00;;;;;;;6.00;2.40;;;18.60;59.90;;;;;;4935496;29;20443;-49
2021/01/21 10:52:28;;;;;;;3.33;2.20;;;18.40;57.20;;;;;;4938341;29;20809;-50
2021/01/21 10:54:55;;;;;;;2.73;2.30;;;18.20;57.20;;;;;;4938253;29;20792;-49
2021/01/21 10:57:21;;;;;;;5.10;2.20;;;17.60;58.90;;;;;;4938314;29;20463;-47
2021/01/21 10:59:48;;;;;;;3.10;1.90;;;17.20;59.20;;;;;;4938639;29;20819;-49
2021/01/21 11:02:14;;;;;;;7.10;2.53;;;16.90;59.30;;;;;;4938109;29;20472;-49
2021/01/21 11:04:40;;;;;;;3.43;2.40;;;16.50;61.80;;;;;;4938540;29;20491;-52
2021/01/21 11:07:07;;;;;;;2.37;1.80;;;16.10;63.10;;;;;;4938732;29;20448;-50
2021/01/21 11:09:35;;;;;;;6.17;2.30;;;15.90;63.80;;;;;;4946391;29;20510;-47
2021/01/21 11:12:04;;;;;;;3.27;2.53;;;15.60;64.00;;;;;;4946141;29;20457;-49
2021/01/21 11:14:31;;;;;;;4.33;2.47;;;15.20;66.30;;;;;;4938882;29;20987;-48
2021/01/21 11:16:57;;;;;;;9.30;6.43;;;15.00;69.90;;;;;;4938818;29;20515;-51
2021/01/21 11:19:23;;;;;;;4.47;3.20;;;14.90;68.20;;;;;;4938864;29;20517;-52
2021/01/21 11:21:52;;;;;;;2.40;1.80;;;14.80;69.10;;;;;;4937634;29;20539;-49
2021/01/21 11:24:18;;;;;;;3.17;2.20;;;14.60;71.60;;;;;;4938492;29;20484;-48
2021/01/21 11:26:45;;;;;;;2.93;2.00;;;14.50;71.60;;;;;;4938153;29;20587;-48
2021/01/21 11:29:12;;;;;;;3.00;2.10;;;14.30;73.40;;;;;;4938321;29;20487;-49
2021/01/21 11:31:39;;;;;;;4.03;2.30;;;14.30;74.90;;;;;;4948066;29;20934;-48
2021/01/21 11:34:06;;;;;;;2.77;2.10;;;14.20;75.00;;;;;;4956843;29;20790;-47
2021/01/21 11:36:32;;;;;;;4.00;2.40;;;14.10;77.20;;;;;;4957208;29;20789;-47
2021/01/21 11:38:59;;;;;;;2.70;2.13;;;14.00;77.90;;;;;;4957845;29;20524;-47
2021/01/21 11:41:25;;;;;;;4.17;2.40;;;14.00;83.60;;;;;;4957741;29;20549;-45
2021/01/21 11:43:53;;;;;;;3.13;2.07;;;13.90;78.90;;;;;;4957837;29;20459;-46
2021/01/21 11:46:19;;;;;;;5.17;1.80;;;13.80;81.90;;;;;;4957781;29;20454;-51
2021/01/21 11:48:45;;;;;;;3.63;2.87;;;13.80;83.10;;;;;;4957642;29;20534;-52
2021/01/21 11:51:12;;;;;;;2.53;1.70;;;13.70;81.70;;;;;;4957158;29;20483;-50
2021/01/21 11:53:38;;;;;;;9.90;2.33;;;13.60;87.40;;;;;;4957281;29;20464;-44
2021/01/21 11:56:05;;;;;;;3.27;2.00;;;13.60;86.50;;;;;;4957629;29;20436;-49
2021/01/21 11:58:32;;;;;;;3.60;2.37;;;13.50;85.10;;;;;;4957009;28;20463;-51
2021/01/21 12:00:59;;;;;;;2.10;1.70;;;13.50;84.70;;;;;;4957404;29;20448;-50
2021/01/21 12:03:27;;;;;;;2.70;2.10;;;13.50;84.90;;;;;;4957859;29;20506;-45
2021/01/21 12:05:54;;;;;;;4.40;1.43;;;13.50;85.30;;;;;;4957499;29;20575;-47
2021/01/21 12:08:20;;;;;;;4.90;2.93;;;13.50;85.70;;;;;;4957712;29;20812;-45
2021/01/21 12:10:48;;;;;;;7.23;2.47;;;13.50;86.20;;;;;;4957367;29;20452;-47
2021/01/21 12:13:15;;;;;;;2.47;1.63;;;13.60;85.40;;;;;;4957599;29;20451;-51
2021/01/21 12:15:42;;;;;;;4.87;1.60;;;13.60;87.20;;;;;;4957446;29;20456;-46
2021/01/21 12:18:10;;;;;;;1.77;1.23;;;13.60;87.80;;;;;;4957429;29;20452;-53
2021/01/21 12:20:36;;;;;;;3.10;1.60;;;13.70;85.80;;;;;;4957574;29;20484;-49
2021/01/21 12:23:03;;;;;;;2.77;1.70;;;13.80;87.90;;;;;;4957269;29;20479;-52
2021/01/21 12:25:33;;;;;;;2.63;1.30;;;13.90;88.30;;;;;;4956989;29;20983;-45
2021/01/21 12:27:59;;;;;;;2.60;2.30;;;13.90;86.60;;;;;;4958077;29;20476;-46
2021/01/21 12:30:26;;;;;;;2.40;1.80;;;13.90;89.30;;;;;;4955713;29;20551;-51
2021/01/21 12:32:53;;;;;;;2.20;1.50;;;13.90;87.40;;;;;;4938261;29;20464;-45
2021/01/21 12:35:20;;;;;;;2.43;1.90;;;13.80;87.60;;;;;;4939243;29;20540;-45
2021/01/21 12:37:47;;;;;;;3.70;1.57;;;13.80;89.80;;;;;;4938520;29;20964;-44
2021/01/21 12:40:14;;;;;;;3.30;1.90;;;13.80;88.80;;;;;;4938409;29;20908;-50
2021/01/21 12:42:41;;;;;;;3.90;2.20;;;13.80;89.30;;;;;;4937953;29;20456;-46
2021/01/21 12:45:08;;;;;;;1.77;1.67;;;13.70;90.00;;;;;;4938216;29;20526;-49
2021/01/21 12:47:35;;;;;;;2.63;1.60;;;13.60;91.00;;;;;;4938825;29;20457;-46
2021/01/21 12:50:02;;;;;;;1.97;1.57;;;13.60;90.30;;;;;;4938261;29;20484;-50
2021/01/21 12:52:29;;;;;;;1.80;1.47;;;13.60;90.50;;;;;;4938708;29;20453;-47
2021/01/21 12:54:57;;;;;;;2.33;1.53;;;13.60;90.90;;;;;;4939031;29;20483;-48
2021/01/21 12:57:24;;;;;;;1.80;1.50;;;13.60;91.00;;;;;;4938699;29;20526;-46
2021/01/21 12:59:52;;;;;;;3.67;2.20;;;13.60;91.60;;;;;;4938877;29;20487;-49
2021/01/21 13:02:18;;;;;;;4.00;1.80;;;13.60;91.90;;;;;;4938507;29;20539;-53
2021/01/21 13:04:45;;;;;;;3.43;2.37;;;13.60;92.90;;;;;;4937930;29;20625;-52
2021/01/21 13:07:12;;;;;;;4.67;2.10;;;13.60;92.70;;;;;;4938009;29;20472;-48
2021/01/21 13:09:40;;;;;;;3.57;2.13;;;13.60;92.70;;;;;;4947716;29;20445;-52
2021/01/21 13:12:07;;;;;;;3.10;2.20;;;13.60;93.70;;;;;;4972677;28;20435;-52
2021/01/21 13:14:34;;;;;;;3.90;1.90;;;13.70;94.30;;;;;;4976923;28;20436;-52
2021/01/21 13:17:00;;;;;;;2.60;1.50;;;13.60;94.10;;;;;;4960499;28;20440;-48
2021/01/21 13:19:27;;;;;;;2.30;1.70;;;13.60;94.90;;;;;;4954421;29;20433;-50
2021/01/21 13:21:54;;;;;;;4.17;2.43;;;13.50;95.90;;;;;;4964559;28;20895;-48
2021/01/21 13:24:21;;;;;;;2.60;1.50;;;13.40;97.80;;;;;;4962273;28;20494;-46
2021/01/21 13:26:52;;;;;;;3.93;2.83;;;13.40;98.50;;;;;;4962106;29;20813;-49
2021/01/21 13:29:20;;;;;;;5.50;1.60;;;13.40;99.50;;;;;;4963087;28;20515;-49
2021/01/21 13:31:47;;;;;;;1.73;1.13;;;13.40;99.90;;;;;;4958889;29;20468;-46
2021/01/21 13:34:13;;;;;;;2.17;1.03;;;13.40;99.90;;;;;;4958906;29;20531;-48
2021/01/21 13:36:40;;;;;;;1.40;1.03;;;13.40;99.90;;;;;;4959282;29;20542;-53
2021/01/21 13:39:07;;;;;;;5.73;1.80;;;13.30;99.90;;;;;;4960257;29;20459;-47
2021/01/21 13:41:33;;;;;;;2.33;1.40;;;13.20;99.90;;;;;;4960659;29;20479;-52
2021/01/21 13:44:00;;;;;;;1.80;1.30;;;13.10;99.90;;;;;;4959220;29;20535;-47
2021/01/21 13:46:29;;;;;;;2.00;1.33;;;12.90;99.90;;;;;;4958189;29;20464;-53
2021/01/21 13:48:56;;;;;;;4.60;1.43;;;12.70;99.90;;;;;;4959240;29;20641;-50
2021/01/21 13:51:22;;;;;;;2.37;1.20;;;12.50;99.90;;;;;;4941407;29;20772;-47
2021/01/21 13:53:48;;;;;;;2.30;1.80;;;12.30;99.90;;;;;;4948589;29;20444;-47
2021/01/21 13:56:15;;;;;;;1.83;0.90;;;12.10;99.90;;;;;;4960937;29;20675;-49
2021/01/21 13:58:41;;;;;;;1.60;1.17;;;12.00;99.90;;;;;;4960982;29;20546;-46
2021/01/21 14:01:09;;;;;;;1.17;0.90;;;11.80;99.90;;;;;;4960453;29;20451;-47
2021/01/21 14:03:37;;;;;;;1.10;0.80;;;11.70;99.90;;;;;;4961209;29;20462;-50
2021/01/21 14:06:03;;;;;;;2.40;1.30;;;11.60;99.90;;;;;;4960585;29;20562;-46
2021/01/21 14:08:30;;;;;;;1.67;1.00;;;11.50;99.90;;;;;;4955377;29;20460;-47
2021/01/21 14:10:56;;;;;;;2.90;1.10;;;11.50;99.90;;;;;;4940234;29;20496;-49
2021/01/21 14:13:24;;;;;;;1.10;0.80;;;11.40;99.90;;;;;;4944615;29;20495;-52
2021/01/21 14:15:51;;;;;;;2.33;1.10;;;11.30;99.90;;;;;;4949836;29;20460;-47
2021/01/21 14:18:19;;;;;;;1.30;1.00;;;11.30;99.90;;;;;;4958561;28;20455;-44
2021/01/21 14:20:46;;;;;;;1.60;1.00;;;11.30;99.90;;;;;;4967619;28;20444;-51
2021/01/21 14:23:13;;;;;;;3.23;1.63;;;11.30;99.90;;;;;;4961836;28;20939;-49
2021/01/21 14:25:40;;;;;;;3.90;1.47;;;11.30;99.90;;;;;;4956777;29;20574;-47
2021/01/21 14:28:08;;;;;;;1.87;1.23;;;11.30;99.90;;;;;;4958038;29;20470;-48
2021/01/21 14:30:35;;;;;;;2.17;1.37;;;11.30;99.90;;;;;;4956859;29;20514;-48
2021/01/21 14:33:02;;;;;;;2.10;1.57;;;11.30;99.90;;;;;;4957767;29;20482;-48
2021/01/21 14:35:29;;;;;;;1.60;1.43;;;11.30;99.90;;;;;;4957369;29;20557;-47
2021/01/21 14:37:57;;;;;;;1.50;1.40;;;11.30;99.90;;;;;;4953637;29;20848;-50
2021/01/21 14:40:25;;;;;;;1.97;1.37;;;11.20;99.90;;;;;;4961175;29;20488;-51
2021/01/21 14:42:52;;;;;;;2.43;1.30;;;11.20;99.90;;;;;;4960792;29;20523;-49
2021/01/21 14:45:18;;;;;;;4.53;2.87;;;11.20;99.90;;;;;;4960896;29;20490;-50
2021/01/21 14:47:45;;;;;;;2.10;1.63;;;11.10;99.90;;;;;;4961058;29;20763;-59
2021/01/21 14:50:12;;;;;;;1.70;1.23;;;11.10;99.90;;;;;;4959847;29;20468;-58
2021/01/21 14:52:39;;;;;;;1.67;1.10;;;11.10;99.90;;;;;;4957792;29;20458;-58
2021/01/21 14:55:08;;;;;;;3.53;1.20;;;11.20;99.90;;;;;;4957052;29;20491;-58
2021/01/21 14:57:35;;;;;;;1.80;1.03;;;11.20;99.90;;;;;;4957878;29;20448;-54
2021/01/21 15:00:03;;;;;;;3.30;1.20;;;11.20;99.90;;;;;;4957765;29;20510;-58
2021/01/21 15:02:30;;;;;;;2.93;1.63;;;11.20;99.90;;;;;;4956574;29;20452;-55
2021/01/21 15:04:57;;;;;;;3.77;1.37;;;11.30;99.90;;;;;;4957901;28;20938;-58
2021/01/21 15:07:24;;;;;;;1.30;1.10;;;11.30;99.90;;;;;;4958592;28;20569;-58
2021/01/21 15:09:52;;;;;;;5.47;3.30;;;11.30;99.90;;;;;;4957977;28;20448;-55
2021/01/21 15:12:19;;;;;;;15.53;1.60;;;11.30;99.90;;;;;;4956949;29;20436;-54
2021/01/21 15:14:46;;;;;;;1.60;1.30;;;11.30;99.90;;;;;;4958253;28;20475;-58
2021/01/21 15:17:12;;;;;;;2.40;1.53;;;11.30;99.90;;;;;;4960251;28;20477;-57
2021/01/21 15:19:39;;;;;;;2.20;1.50;;;11.20;99.90;;;;;;4958758;29;20440;-57
2021/01/21 15:22:06;;;;;;;1.83;1.10;;;11.20;99.90;;;;;;4957062;29;20534;-57
2021/01/21 15:24:33;;;;;;;1.30;1.00;;;11.20;99.90;;;;;;4956430;29;20484;-57
2021/01/21 15:27:04;;;;;;;1.67;1.17;;;11.10;99.90;;;;;;4955576;29;20978;-57
2021/01/21 15:29:31;;;;;;;3.40;1.30;;;11.10;99.90;;;;;;4958206;29;20478;-59
2021/01/21 15:31:58;;;;;;;1.83;1.20;;;11.10;99.90;;;;;;4957539;28;20444;-58
2021/01/21 15:34:24;;;;;;;1.80;1.60;;;11.10;99.90;;;;;;4957560;29;20452;-56
2021/01/21 15:36:51;;;;;;;7.50;1.57;;;11.10;99.90;;;;;;4958343;29;20544;-59
2021/01/21 15:39:18;;;;;;;2.17;1.40;;;11.20;99.90;;;;;;4958033;29;20462;-58
2021/01/21 15:41:45;;;;;;;1.90;1.40;;;11.10;99.90;;;;;;4957613;29;20458;-59
2021/01/21 15:44:13;;;;;;;2.40;1.60;;;11.10;99.90;;;;;;4956620;29;20491;-58
2021/01/21 15:46:40;;;;;;;1.83;1.20;;;11.10;99.90;;;;;;4956900;29;20472;-50
2021/01/21 15:49:07;;;;;;;1.90;1.23;;;11.10;99.90;;;;;;4961392;29;20779;-50
2021/01/21 15:51:37;;;;;;;2.50;1.50;;;11.00;99.90;;;;;;4957853;29;20527;-46
2021/01/21 15:54:04;;;;;;;3.73;1.40;;;10.90;99.90;;;;;;4957439;29;20472;-46
2021/01/21 15:56:31;;;;;;;3.10;1.70;;;10.90;99.90;;;;;;4958020;29;20451;-45
2021/01/21 15:58:58;;;;;;;3.40;1.40;;;10.90;99.90;;;;;;4958309;29;20527;-44
2021/01/21 16:01:25;;;;;;;1.37;1.10;;;10.90;99.90;;;;;;4958968;29;20506;-47
2021/01/21 16:03:52;;;;;;;1.47;1.00;;;10.80;99.90;;;;;;4957804;29;20768;-49
2021/01/21 16:06:19;;;;;;;2.27;1.10;;;10.80;99.90;;;;;;4959806;29;20487;-47
2021/01/21 16:08:46;;;;;;;1.30;1.20;;;10.80;99.90;;;;;;4957954;29;20973;-51
2021/01/21 16:11:13;;;;;;;2.57;1.80;;;10.80;99.90;;;;;;4957695;29;20794;-46
2021/01/21 16:13:39;;;;;;;1.77;1.10;;;10.80;99.90;;;;;;4956926;29;20475;-46
2021/01/21 16:16:06;;;;;;;1.90;1.63;;;10.80;99.90;;;;;;4958825;29;20444;-52
2021/01/21 16:18:34;;;;;;;2.53;1.47;;;10.80;99.90;;;;;;4961849;29;20555;-47
2021/01/21 16:21:01;;;;;;;2.23;1.40;;;10.70;99.90;;;;;;4957263;29;20456;-46
2021/01/21 16:23:28;;;;;;;3.57;1.57;;;10.70;99.90;;;;;;4960894;29;20451;-48
2021/01/21 16:25:55;;;;;;;1.57;1.00;;;10.70;99.90;;;;;;4960873;28;20506;-48
2021/01/21 16:28:23;;;;;;;1.97;1.00;;;10.70;99.90;;;;;;4960086;29;20440;-45
2021/01/21 16:30:50;;;;;;;3.53;2.20;;;10.70;99.90;;;;;;4961191;29;20456;-46
2021/01/21 16:33:17;;;;;;;1.70;1.10;;;10.70;99.90;;;;;;4959940;29;21021;-47
2021/01/21 16:35:44;;;;;;;2.80;1.60;;;10.80;99.90;;;;;;4960264;29;20487;-45
2021/01/21 16:38:12;;;;;;;1.13;0.90;;;10.80;99.90;;;;;;4961231;29;20487;-47
2021/01/21 16:40:38;;;;;;;1.13;0.90;;;10.80;99.90;;;;;;4955885;29;20915;-47
2021/01/21 16:43:05;;;;;;;2.83;1.00;;;10.80;99.90;;;;;;4960705;29;20456;-49
2021/01/21 16:45:31;;;;;;;1.20;0.70;;;10.80;99.90;;;;;;4963422;28;20512;-47
2021/01/21 16:47:58;;;;;;;2.20;0.87;;;10.80;99.90;;;;;;4965290;29;20480;-44
2021/01/21 16:50:25;;;;;;;1.50;1.27;;;10.80;99.90;;;;;;4961346;29;20787;-50
2021/01/21 16:52:53;;;;;;;1.40;0.90;;;10.90;99.90;;;;;;4965585;29;20558;-48
2021/01/21 16:55:19;;;;;;;1.97;1.57;;;10.90;99.90;;;;;;4964300;29;20451;-47
2021/01/21 16:57:46;;;;;;;1.20;1.10;;;10.90;99.90;;;;;;4961297;29;21157;-46
2021/01/21 17:00:15;;;;;;;1.30;0.80;;;10.90;99.90;;;;;;4957262;29;20468;-50
2021/01/21 17:02:42;;;;;;;1.00;0.80;;;10.90;99.90;;;;;;4962231;29;20483;-46
2021/01/21 17:05:10;;;;;;;1.00;0.73;;;10.90;99.90;;;;;;4960765;29;20499;-44
2021/01/21 17:07:37;;;;;;;1.20;0.80;;;10.90;99.90;;;;;;4961553;29;20452;-49
2021/01/21 17:10:08;;;;;;;1.00;0.80;;;10.90;99.90;;;;;;4961086;29;20475;-50
2021/01/21 17:12:35;;;;;;;1.83;0.80;;;10.90;99.90;;;;;;4960404;29;20945;-47
2021/01/21 17:15:03;;;;;;;2.00;1.00;;;10.90;99.90;;;;;;4959372;29;20453;-50
2021/01/21 17:17:29;;;;;;;1.30;0.87;;;10.90;99.90;;;;;;4963312;29;20464;-48
2021/01/21 17:19:56;;;;;;;0.90;0.60;;;10.90;99.90;;;;;;4964247;29;20460;-46
2021/01/21 17:22:22;;;;;;;3.00;1.10;;;10.80;99.90;;;;;;4964281;29;20462;-46
2021/01/21 17:24:49;;;;;;;1.77;1.30;;;10.80;99.90;;;;;;4963330;29;20475;-51
2021/01/21 17:27:17;;;;;;;2.17;1.33;;;10.80;99.90;;;;;;4962008;29;20553;-50
2021/01/21 17:29:43;;;;;;;3.33;1.90;;;10.80;99.90;;;;;;4961022;29;20967;-48
2021/01/21 17:32:10;;;;;;;3.43;1.80;;;10.80;99.90;;;;;;4961171;29;20508;-46
2021/01/21 17:34:36;;;;;;;2.93;1.73;;;10.80;99.90;;;;;;4960234;29;20498;-50
2021/01/21 17:37:03;;;;;;;2.33;1.67;;;10.70;99.90;;;;;;4959987;29;20456;-51
2021/01/21 17:39:30;;;;;;;1.60;1.43;;;10.70;99.90;;;;;;4959848;29;20515;-51
2021/01/21 17:41:56;;;;;;;3.13;1.20;;;10.60;99.90;;;;;;4960306;29;20464;-49
2021/01/21 17:44:24;;;;;;;11.03;3.03;;;10.60;99.90;;;;;;4963278;29;20455;-49
2021/01/21 17:46:51;;;;;;;4.70;2.33;;;10.60;99.90;;;;;;4963509;29;20519;-51
2021/01/21 17:49:17;;;;;;;1.90;1.47;;;10.50;99.90;;;;;;4964184;29;20523;-47
2021/01/21 17:51:44;;;;;;;3.93;1.30;;;10.50;99.90;;;;;;4964209;29;20458;-46
2021/01/21 17:54:11;;;;;;;1.40;0.90;;;10.50;99.90;;;;;;4964489;29;20746;-50
2021/01/21 17:56:37;;;;;;;1.50;0.90;;;10.50;99.90;;;;;;4962450;28;20931;-50
2021/01/21 17:59:04;;;;;;;2.43;1.90;;;10.40;99.90;;;;;;4960197;29;20478;-48
2021/01/21 18:01:32;;;;;;;1.70;1.17;;;10.40;99.90;;;;;;4960987;29;20891;-46
2021/01/21 18:03:58;;;;;;;2.13;1.27;;;10.40;99.90;;;;;;4960113;29;20478;-45
2021/01/21 18:06:27;;;;;;;4.30;2.37;;;10.40;99.90;;;;;;4960559;29;20556;-45
2021/01/21 18:08:53;;;;;;;3.60;1.67;;;10.40;99.90;;;;;;4961318;29;20514;-45
2021/01/21 18:11:20;;;;;;;2.63;1.13;;;10.40;99.90;;;;;;4960374;29;20458;-44
2021/01/21 18:13:47;;;;;;;1.30;1.10;;;10.40;99.90;;;;;;4959642;29;20514;-50
2021/01/21 18:16:14;;;;;;;3.30;1.70;;;10.40;99.90;;;;;;4959869;29;20487;-44
2021/01/21 18:18:41;;;;;;;1.90;1.00;;;10.40;99.90;;;;;;4960242;29;20823;-47
2021/01/21 18:21:08;;;;;;;3.13;1.60;;;10.40;99.90;;;;;;4960509;29;20452;-45
2021/01/21 18:23:36;;;;;;;2.90;1.00;;;10.50;99.90;;;;;;4963834;29;20538;-51
2021/01/21 18:26:03;;;;;;;1.60;1.03;;;10.50;99.90;;;;;;4963651;29;20496;-46
2021/01/21 18:28:30;;;;;;;2.37;1.77;;;10.40;99.90;;;;;;4963503;29;20448;-49
2021/01/21 18:30:56;;;;;;;1.73;1.10;;;10.40;99.90;;;;;;4963917;29;20448;-52
2021/01/21 18:33:23;;;;;;;2.07;1.50;;;10.40;99.90;;;;;;4963220;29;20463;-45
2021/01/21 18:35:51;;;;;;;1.60;1.47;;;10.30;99.90;;;;;;4958790;29;20459;-48
2021/01/21 18:38:18;;;;;;;3.00;1.10;;;10.30;99.90;;;;;;4963040;29;20455;-51
2021/01/21 18:40:45;;;;;;;3.80;1.70;;;10.30;99.90;;;;;;4962989;29;20484;-49
2021/01/21 18:43:13;;;;;;;2.70;1.53;;;10.20;99.90;;;;;;4962423;29;20448;-48
2021/01/21 18:45:40;;;;;;;2.43;1.60;;;10.20;99.90;;;;;;4951434;29;20515;-46
2021/01/21 18:48:08;;;;;;;1.60;1.30;;;10.20;99.90;;;;;;4962598;29;20820;-49
2021/01/21 18:50:35;;;;;;;2.30;1.00;;;10.10;99.90;;;;;;4963170;29;20472;-44
2021/01/21 18:53:03;;;;;;;1.93;1.60;;;10.10;99.90;;;;;;4959729;29;20458;-49
2021/01/21 18:55:30;;;;;;;3.57;1.20;;;10.00;99.90;;;;;;4958536;29;20502;-52
2021/01/21 18:57:57;;;;;;;2.03;1.10;;;10.00;99.90;;;;;;4958588;29;20899;-49
2021/01/21 19:00:24;;;;;;;2.80;1.60;;;10.00;99.90;;;;;;4958603;29;20458;-51
2021/01/21 19:02:51;;;;;;;1.93;1.63;;;9.90;99.90;;;;;;4958504;29;20463;-51
2021/01/21 19:05:18;;;;;;;2.00;1.80;;;9.90;99.90;;;;;;4945382;29;20484;-47
2021/01/21 19:07:45;;;;;;;1.63;1.40;;;9.90;99.90;;;;;;4965423;28;20455;-51
2021/01/21 19:10:13;;;;;;;2.27;2.07;;;9.80;99.90;;;;;;4962992;29;20503;-51
2021/01/21 19:12:40;;;;;;;2.20;1.90;;;9.80;99.90;;;;;;4960213;29;20515;-52
2021/01/21 19:15:08;;;;;;;2.47;1.63;;;9.80;99.90;;;;;;4958117;29;20493;-50
2021/01/21 19:17:35;;;;;;;2.23;1.63;;;9.80;99.90;;;;;;4961346;29;20456;-47
2021/01/21 19:20:02;;;;;;;3.10;1.57;;;9.70;99.90;;;;;;4963814;29;20511;-45
2021/01/21 19:22:28;;;;;;;1.50;1.10;;;9.70;99.90;;;;;;4963477;29;20503;-44
2021/01/21 19:24:55;;;;;;;4.17;2.10;;;9.70;99.90;;;;;;4958639;29;20484;-48
2021/01/21 19:27:23;;;;;;;2.87;1.80;;;9.70;99.90;;;;;;4958545;28;20490;-48
2021/01/21 19:29:50;;;;;;;3.73;1.63;;;9.60;99.90;;;;;;4957755;29;20444;-50
2021/01/21 19:32:16;;;;;;;3.73;1.63;;;9.60;99.90;;;;;;4958572;29;20456;-47
2021/01/21 19:34:44;;;;;;;1.73;1.20;;;9.60;99.90;;;;;;4958101;29;20463;-48
2021/01/21 19:37:11;;;;;;;2.67;1.43;;;9.50;99.90;;;;;;4958068;29;20484;-51
2021/01/21 19:39:37;;;;;;;2.93;1.37;;;9.50;99.90;;;;;;4958927;29;20933;-49
2021/01/21 19:42:07;;;;;;;2.67;1.67;;;9.50;99.90;;;;;;4958437;29;20472;-49
2021/01/21 19:44:35;;;;;;;3.60;1.50;;;9.50;99.90;;;;;;4961649;29;20542;-52
2021/01/21 19:47:02;;;;;;;2.47;1.50;;;9.50;99.90;;;;;;4963054;29;20887;-47
2021/01/21 19:49:29;;;;;;;1.43;1.20;;;9.50;99.90;;;;;;4962761;29;20780;-46
2021/01/21 19:51:56;;;;;;;3.10;2.03;;;9.50;99.90;;;;;;4958042;29;20992;-49
2021/01/21 19:54:22;;;;;;;2.30;1.63;;;9.50;99.90;;;;;;4961649;29;20459;-51
2021/01/21 19:56:49;;;;;;;2.17;1.30;;;9.40;99.90;;;;;;4962121;29;20452;-46
2021/01/21 19:59:16;;;;;;;1.93;1.20;;;9.40;99.90;;;;;;4962459;29;20987;-48
2021/01/21 20:01:43;;;;;;;4.20;1.90;;;9.40;99.90;;;;;;4953455;29;20440;-51
2021/01/21 20:04:10;;;;;;;1.80;1.50;;;9.40;99.90;;;;;;4961195;29;20448;-52
2021/01/21 20:06:38;;;;;;;3.13;2.33;;;9.40;99.90;;;;;;4961722;29;20519;-52
2021/01/21 20:09:06;;;;;;;2.00;1.53;;;9.40;99.90;;;;;;4962546;29;20795;-58
2021/01/21 20:11:34;;;;;;;2.70;2.23;;;9.50;99.90;;;;;;4957980;29;20459;-59
2021/01/21 20:14:02;;;;;;;2.57;1.80;;;9.50;99.90;;;;;;4961819;29;20479;-58
2021/01/21 20:16:29;;;;;;;2.97;2.03;;;9.50;99.90;;;;;;4964826;29;20451;-60